sensor_id;sensor_type;location;lat;lon;timestamp;P1;durP1;ratioP1;P2;durP2;ratioP2
52614;SDS011;38508;53.158;6.614;2023-02-03T00:00:24;10.02;;;8.45;;
52614;SDS011;38508;53.158;6.614;2023-02-03T00:02:52;10.75;;;8.05;;
52614;SDS011;38508;53.158;6.614;2023-02-03T00:05:19;14.55;;;9.25;;
52614;SDS011;38508;53.158;6.614;2023-02-03T00:07:45;9.85;;;8.85;;
52614;SDS011;38508;53.158;6.614;2023-02-03T00:10:12;10.70;;;8.50;;
52614;SDS011;38508;53.158;6.614;2023-02-03T00:12:38;13.55;;;8.60;;
52614;SDS011;38508;53.158;6.614;2023-02-03T00:15:04;11.27;;;8.73;;
52614;SDS011;38508;53.158;6.614;2023-02-03T00:17:30;15.32;;;8.38;;
52614;SDS011;38508;53.158;6.614;2023-02-03T00:19:56;12.43;;;8.30;;
52614;SDS011;38508;53.158;6.614;2023-02-03T00:22:22;10.45;;;7.97;;
52614;SDS011;38508;53.158;6.614;2023-02-03T00:24:47;13.65;;;7.30;;
52614;SDS011;38508;53.158;6.614;2023-02-03T00:27:13;12.93;;;8.07;;
52614;SDS011;38508;53.158;6.614;2023-02-03T00:29:39;12.10;;;7.53;;
52614;SDS011;38508;53.158;6.614;2023-02-03T00:32:04;10.38;;;7.40;;
52614;SDS011;38508;53.158;6.614;2023-02-03T00:34:30;8.45;;;7.65;;
52614;SDS011;38508;53.158;6.614;2023-02-03T00:36:56;16.20;;;8.43;;
52614;SDS011;38508;53.158;6.614;2023-02-03T00:39:22;15.32;;;8.18;;
52614;SDS011;38508;53.158;6.614;2023-02-03T00:41:48;13.13;;;8.50;;
52614;SDS011;38508;53.158;6.614;2023-02-03T00:44:14;20.70;;;9.20;;
52614;SDS011;38508;53.158;6.614;2023-02-03T00:46:40;15.77;;;9.05;;
52614;SDS011;38508;53.158;6.614;2023-02-03T00:49:06;13.20;;;8.85;;
52614;SDS011;38508;53.158;6.614;2023-02-03T00:51:32;16.23;;;9.00;;
52614;SDS011;38508;53.158;6.614;2023-02-03T00:53:58;11.43;;;8.90;;
52614;SDS011;38508;53.158;6.614;2023-02-03T00:56:24;15.02;;;9.68;;
52614;SDS011;38508;53.158;6.614;2023-02-03T00:58:50;13.18;;;9.20;;
52614;SDS011;38508;53.158;6.614;2023-02-03T01:01:16;11.10;;;7.90;;
52614;SDS011;38508;53.158;6.614;2023-02-03T01:03:42;14.93;;;8.18;;
52614;SDS011;38508;53.158;6.614;2023-02-03T01:06:08;15.25;;;8.27;;
52614;SDS011;38508;53.158;6.614;2023-02-03T01:08:34;13.02;;;8.90;;
52614;SDS011;38508;53.158;6.614;2023-02-03T01:11:04;15.90;;;8.23;;
52614;SDS011;38508;53.158;6.614;2023-02-03T01:13:34;12.02;;;9.38;;
52614;SDS011;38508;53.158;6.614;2023-02-03T01:16:00;15.32;;;8.23;;
52614;SDS011;38508;53.158;6.614;2023-02-03T01:18:26;12.93;;;9.43;;
52614;SDS011;38508;53.158;6.614;2023-02-03T01:20:52;10.38;;;8.85;;
52614;SDS011;38508;53.158;6.614;2023-02-03T01:23:17;13.30;;;9.60;;
52614;SDS011;38508;53.158;6.614;2023-02-03T01:25:43;13.43;;;9.20;;
52614;SDS011;38508;53.158;6.614;2023-02-03T01:28:09;12.23;;;9.43;;
52614;SDS011;38508;53.158;6.614;2023-02-03T01:30:34;11.52;;;9.88;;
52614;SDS011;38508;53.158;6.614;2023-02-03T01:33:00;20.80;;;9.35;;
52614;SDS011;38508;53.158;6.614;2023-02-03T01:35:26;11.85;;;9.40;;
52614;SDS011;38508;53.158;6.614;2023-02-03T01:37:51;9.40;;;7.90;;
52614;SDS011;38508;53.158;6.614;2023-02-03T01:40:17;12.93;;;8.27;;
52614;SDS011;38508;53.158;6.614;2023-02-03T01:42:43;18.23;;;8.35;;
52614;SDS011;38508;53.158;6.614;2023-02-03T01:45:09;10.38;;;7.10;;
52614;SDS011;38508;53.158;6.614;2023-02-03T01:47:37;12.93;;;6.97;;
52614;SDS011;38508;53.158;6.614;2023-02-03T01:50:16;13.95;;;7.78;;
52614;SDS011;38508;53.158;6.614;2023-02-03T01:53:02;16.67;;;7.18;;
52614;SDS011;38508;53.158;6.614;2023-02-03T01:55:35;14.00;;;8.20;;
52614;SDS011;38508;53.158;6.614;2023-02-03T01:58:20;16.50;;;8.32;;
52614;SDS011;38508;53.158;6.614;2023-02-03T02:00:49;15.98;;;8.38;;
52614;SDS011;38508;53.158;6.614;2023-02-03T02:03:19;19.40;;;8.50;;
52614;SDS011;38508;53.158;6.614;2023-02-03T02:06:02;17.52;;;8.63;;
52614;SDS011;38508;53.158;6.614;2023-02-03T02:08:30;21.42;;;8.07;;
52614;SDS011;38508;53.158;6.614;2023-02-03T02:10:56;15.75;;;8.48;;
52614;SDS011;38508;53.158;6.614;2023-02-03T02:13:23;21.85;;;8.55;;
52614;SDS011;38508;53.158;6.614;2023-02-03T02:15:53;13.27;;;8.20;;
52614;SDS011;38508;53.158;6.614;2023-02-03T02:18:23;12.55;;;8.00;;
52614;SDS011;38508;53.158;6.614;2023-02-03T02:31:46;17.25;;;8.57;;
52614;SDS011;38508;53.158;6.614;2023-02-03T02:43:09;18.30;;;8.50;;
52614;SDS011;38508;53.158;6.614;2023-02-03T02:45:53;17.10;;;7.40;;
52614;SDS011;38508;53.158;6.614;2023-02-03T02:48:34;20.27;;;9.35;;
52614;SDS011;38508;53.158;6.614;2023-02-03T02:51:04;13.20;;;8.45;;
52614;SDS011;38508;53.158;6.614;2023-02-03T02:53:34;16.00;;;7.30;;
52614;SDS011;38508;53.158;6.614;2023-02-03T02:56:04;17.63;;;7.57;;
52614;SDS011;38508;53.158;6.614;2023-02-03T02:58:33;19.63;;;7.60;;
52614;SDS011;38508;53.158;6.614;2023-02-03T03:01:01;19.67;;;8.27;;
52614;SDS011;38508;53.158;6.614;2023-02-03T03:03:28;13.85;;;6.75;;
52614;SDS011;38508;53.158;6.614;2023-02-03T03:06:01;15.45;;;7.55;;
52614;SDS011;38508;53.158;6.614;2023-02-03T03:08:39;19.30;;;8.07;;
52614;SDS011;38508;53.158;6.614;2023-02-03T03:11:16;15.15;;;7.68;;
52614;SDS011;38508;53.158;6.614;2023-02-03T03:13:48;22.23;;;8.35;;
52614;SDS011;38508;53.158;6.614;2023-02-03T03:16:17;11.80;;;8.52;;
52614;SDS011;38508;53.158;6.614;2023-02-03T03:19:00;17.45;;;8.05;;
52614;SDS011;38508;53.158;6.614;2023-02-03T03:21:35;15.45;;;8.50;;
52614;SDS011;38508;53.158;6.614;2023-02-03T03:24:08;19.83;;;8.23;;
52614;SDS011;38508;53.158;6.614;2023-02-03T03:26:46;16.40;;;8.27;;
52614;SDS011;38508;53.158;6.614;2023-02-03T03:29:21;24.48;;;8.65;;
52614;SDS011;38508;53.158;6.614;2023-02-03T03:31:53;16.33;;;8.75;;
52614;SDS011;38508;53.158;6.614;2023-02-03T03:34:18;18.67;;;9.23;;
52614;SDS011;38508;53.158;6.614;2023-02-03T03:36:57;20.13;;;8.77;;
52614;SDS011;38508;53.158;6.614;2023-02-03T03:42:19;14.82;;;9.50;;
52614;SDS011;38508;53.158;6.614;2023-02-03T03:44:53;17.65;;;9.23;;
52614;SDS011;38508;53.158;6.614;2023-02-03T03:47:28;18.52;;;9.20;;
52614;SDS011;38508;53.158;6.614;2023-02-03T03:50:00;23.13;;;10.43;;
52614;SDS011;38508;53.158;6.614;2023-02-03T03:52:29;18.30;;;9.57;;
52614;SDS011;38508;53.158;6.614;2023-02-03T03:54:59;24.23;;;9.30;;
52614;SDS011;38508;53.158;6.614;2023-02-03T03:57:29;19.05;;;9.32;;
52614;SDS011;38508;53.158;6.614;2023-02-03T04:00:23;18.77;;;10.32;;
52614;SDS011;38508;53.158;6.614;2023-02-03T04:02:52;18.33;;;9.57;;
52614;SDS011;38508;53.158;6.614;2023-02-03T04:05:21;22.17;;;10.15;;
52614;SDS011;38508;53.158;6.614;2023-02-03T04:07:47;19.60;;;8.90;;
52614;SDS011;38508;53.158;6.614;2023-02-03T04:10:15;19.35;;;8.43;;
52614;SDS011;38508;53.158;6.614;2023-02-03T04:12:45;19.50;;;9.25;;
52614;SDS011;38508;53.158;6.614;2023-02-03T04:15:11;17.98;;;8.80;;
52614;SDS011;38508;53.158;6.614;2023-02-03T04:17:37;17.40;;;8.77;;
52614;SDS011;38508;53.158;6.614;2023-02-03T04:20:03;27.63;;;9.38;;
52614;SDS011;38508;53.158;6.614;2023-02-03T04:22:29;14.38;;;9.60;;
52614;SDS011;38508;53.158;6.614;2023-02-03T04:24:55;20.55;;;9.75;;
52614;SDS011;38508;53.158;6.614;2023-02-03T04:27:23;20.42;;;9.10;;
52614;SDS011;38508;53.158;6.614;2023-02-03T04:29:50;17.02;;;9.30;;
52614;SDS011;38508;53.158;6.614;2023-02-03T04:32:16;18.00;;;9.27;;
52614;SDS011;38508;53.158;6.614;2023-02-03T04:34:42;15.60;;;9.75;;
52614;SDS011;38508;53.158;6.614;2023-02-03T04:37:07;15.30;;;8.60;;
52614;SDS011;38508;53.158;6.614;2023-02-03T04:39:33;10.52;;;8.60;;
52614;SDS011;38508;53.158;6.614;2023-02-03T04:41:59;16.58;;;8.88;;
52614;SDS011;38508;53.158;6.614;2023-02-03T04:44:24;18.30;;;9.07;;
52614;SDS011;38508;53.158;6.614;2023-02-03T04:46:50;18.30;;;9.60;;
52614;SDS011;38508;53.158;6.614;2023-02-03T04:49:16;16.08;;;9.38;;
52614;SDS011;38508;53.158;6.614;2023-02-03T04:51:42;19.17;;;9.75;;
52614;SDS011;38508;53.158;6.614;2023-02-03T04:54:08;18.45;;;9.85;;
52614;SDS011;38508;53.158;6.614;2023-02-03T04:56:35;21.63;;;8.90;;
52614;SDS011;38508;53.158;6.614;2023-02-03T04:59:01;14.80;;;9.25;;
52614;SDS011;38508;53.158;6.614;2023-02-03T05:01:26;22.67;;;8.52;;
52614;SDS011;38508;53.158;6.614;2023-02-03T05:03:52;14.70;;;8.40;;
52614;SDS011;38508;53.158;6.614;2023-02-03T05:06:21;20.60;;;10.35;;
52614;SDS011;38508;53.158;6.614;2023-02-03T05:08:51;16.13;;;10.38;;
52614;SDS011;38508;53.158;6.614;2023-02-03T05:11:17;18.13;;;8.63;;
52614;SDS011;38508;53.158;6.614;2023-02-03T05:13:43;18.25;;;8.30;;
52614;SDS011;38508;53.158;6.614;2023-02-03T05:16:08;18.33;;;8.52;;
52614;SDS011;38508;53.158;6.614;2023-02-03T05:18:34;16.80;;;9.10;;
52614;SDS011;38508;53.158;6.614;2023-02-03T05:21:00;22.45;;;9.27;;
52614;SDS011;38508;53.158;6.614;2023-02-03T05:23:25;16.70;;;8.40;;
52614;SDS011;38508;53.158;6.614;2023-02-03T05:25:51;16.58;;;9.10;;
52614;SDS011;38508;53.158;6.614;2023-02-03T05:28:17;15.77;;;9.43;;
52614;SDS011;38508;53.158;6.614;2023-02-03T05:30:42;16.33;;;10.05;;
52614;SDS011;38508;53.158;6.614;2023-02-03T05:33:08;14.38;;;10.10;;
52614;SDS011;38508;53.158;6.614;2023-02-03T05:35:34;19.55;;;10.32;;
52614;SDS011;38508;53.158;6.614;2023-02-03T05:37:59;17.30;;;10.90;;
52614;SDS011;38508;53.158;6.614;2023-02-03T05:40:26;16.83;;;10.77;;
52614;SDS011;38508;53.158;6.614;2023-02-03T05:43:11;15.35;;;9.52;;
52614;SDS011;38508;53.158;6.614;2023-02-03T05:45:36;20.27;;;10.75;;
52614;SDS011;38508;53.158;6.614;2023-02-03T05:48:02;21.38;;;10.60;;
52614;SDS011;38508;53.158;6.614;2023-02-03T05:50:28;20.30;;;11.23;;
52614;SDS011;38508;53.158;6.614;2023-02-03T05:53:02;20.02;;;10.68;;
52614;SDS011;38508;53.158;6.614;2023-02-03T05:55:29;13.07;;;9.63;;
52614;SDS011;38508;53.158;6.614;2023-02-03T05:57:56;18.88;;;11.15;;
52614;SDS011;38508;53.158;6.614;2023-02-03T06:00:22;21.70;;;11.57;;
52614;SDS011;38508;53.158;6.614;2023-02-03T06:02:52;25.83;;;10.85;;
52614;SDS011;38508;53.158;6.614;2023-02-03T06:05:19;22.17;;;11.88;;
52614;SDS011;38508;53.158;6.614;2023-02-03T06:07:45;22.10;;;11.68;;
52614;SDS011;38508;53.158;6.614;2023-02-03T06:10:11;25.58;;;12.68;;
52614;SDS011;38508;53.158;6.614;2023-02-03T06:12:37;23.40;;;12.15;;
52614;SDS011;38508;53.158;6.614;2023-02-03T06:15:03;24.40;;;11.95;;
52614;SDS011;38508;53.158;6.614;2023-02-03T06:17:30;27.92;;;13.88;;
52614;SDS011;38508;53.158;6.614;2023-02-03T06:19:55;22.70;;;13.73;;
52614;SDS011;38508;53.158;6.614;2023-02-03T06:22:21;23.52;;;13.52;;
52614;SDS011;38508;53.158;6.614;2023-02-03T06:24:47;23.83;;;13.40;;
52614;SDS011;38508;53.158;6.614;2023-02-03T06:27:13;21.85;;;13.25;;
52614;SDS011;38508;53.158;6.614;2023-02-03T06:29:40;26.92;;;12.75;;
52614;SDS011;38508;53.158;6.614;2023-02-03T06:32:06;25.27;;;12.70;;
52614;SDS011;38508;53.158;6.614;2023-02-03T06:34:32;22.85;;;13.90;;
52614;SDS011;38508;53.158;6.614;2023-02-03T06:36:58;26.73;;;14.40;;
52614;SDS011;38508;53.158;6.614;2023-02-03T06:39:24;28.77;;;14.25;;
52614;SDS011;38508;53.158;6.614;2023-02-03T06:41:50;25.52;;;13.40;;
52614;SDS011;38508;53.158;6.614;2023-02-03T06:44:16;29.02;;;13.90;;
52614;SDS011;38508;53.158;6.614;2023-02-03T06:46:42;24.92;;;13.82;;
52614;SDS011;38508;53.158;6.614;2023-02-03T06:49:08;28.70;;;14.32;;
52614;SDS011;38508;53.158;6.614;2023-02-03T06:51:34;22.92;;;13.63;;
52614;SDS011;38508;53.158;6.614;2023-02-03T06:54:00;26.75;;;14.07;;
52614;SDS011;38508;53.158;6.614;2023-02-03T06:56:27;22.30;;;13.73;;
52614;SDS011;38508;53.158;6.614;2023-02-03T06:58:53;25.45;;;13.57;;
52614;SDS011;38508;53.158;6.614;2023-02-03T07:01:20;23.70;;;14.13;;
52614;SDS011;38508;53.158;6.614;2023-02-03T07:03:46;28.70;;;14.13;;
52614;SDS011;38508;53.158;6.614;2023-02-03T07:06:12;24.02;;;15.23;;
52614;SDS011;38508;53.158;6.614;2023-02-03T07:08:38;25.42;;;13.52;;
52614;SDS011;38508;53.158;6.614;2023-02-03T07:11:04;32.17;;;14.02;;
52614;SDS011;38508;53.158;6.614;2023-02-03T07:13:30;29.73;;;13.82;;
52614;SDS011;38508;53.158;6.614;2023-02-03T07:15:55;24.67;;;14.15;;
52614;SDS011;38508;53.158;6.614;2023-02-03T07:18:21;26.58;;;14.68;;
52614;SDS011;38508;53.158;6.614;2023-02-03T07:20:51;23.95;;;14.68;;
52614;SDS011;38508;53.158;6.614;2023-02-03T07:23:18;31.25;;;15.02;;
52614;SDS011;38508;53.158;6.614;2023-02-03T07:25:43;26.95;;;14.90;;
52614;SDS011;38508;53.158;6.614;2023-02-03T07:28:09;33.30;;;16.02;;
52614;SDS011;38508;53.158;6.614;2023-02-03T07:30:35;39.63;;;16.63;;
52614;SDS011;38508;53.158;6.614;2023-02-03T07:33:01;33.50;;;17.83;;
52614;SDS011;38508;53.158;6.614;2023-02-03T07:35:27;30.27;;;22.05;;
52614;SDS011;38508;53.158;6.614;2023-02-03T07:37:53;35.78;;;30.15;;
52614;SDS011;38508;53.158;6.614;2023-02-03T07:40:18;40.92;;;37.13;;
52614;SDS011;38508;53.158;6.614;2023-02-03T07:42:45;44.67;;;39.88;;
52614;SDS011;38508;53.158;6.614;2023-02-03T07:45:12;44.05;;;40.58;;
52614;SDS011;38508;53.158;6.614;2023-02-03T07:47:39;49.35;;;42.00;;
52614;SDS011;38508;53.158;6.614;2023-02-03T07:50:06;45.45;;;40.83;;
52614;SDS011;38508;53.158;6.614;2023-02-03T07:52:33;45.80;;;39.72;;
52614;SDS011;38508;53.158;6.614;2023-02-03T07:54:58;46.90;;;41.85;;
52614;SDS011;38508;53.158;6.614;2023-02-03T07:57:24;44.55;;;39.63;;
52614;SDS011;38508;53.158;6.614;2023-02-03T07:59:50;50.90;;;39.00;;
52614;SDS011;38508;53.158;6.614;2023-02-03T08:02:16;41.05;;;35.85;;
52614;SDS011;38508;53.158;6.614;2023-02-03T08:04:41;47.78;;;34.63;;
52614;SDS011;38508;53.158;6.614;2023-02-03T08:07:07;47.53;;;34.33;;
52614;SDS011;38508;53.158;6.614;2023-02-03T08:09:33;35.15;;;31.50;;
52614;SDS011;38508;53.158;6.614;2023-02-03T08:11:58;51.83;;;33.88;;
52614;SDS011;38508;53.158;6.614;2023-02-03T08:14:24;43.33;;;33.10;;
52614;SDS011;38508;53.158;6.614;2023-02-03T08:16:50;48.53;;;35.30;;
52614;SDS011;38508;53.158;6.614;2023-02-03T08:19:15;44.65;;;35.83;;
52614;SDS011;38508;53.158;6.614;2023-02-03T08:21:41;45.33;;;37.00;;
52614;SDS011;38508;53.158;6.614;2023-02-03T08:24:07;42.97;;;37.13;;
52614;SDS011;38508;53.158;6.614;2023-02-03T08:26:34;48.72;;;40.35;;
52614;SDS011;38508;53.158;6.614;2023-02-03T08:29:00;46.30;;;39.58;;
52614;SDS011;38508;53.158;6.614;2023-02-03T08:31:27;44.25;;;39.63;;
52614;SDS011;38508;53.158;6.614;2023-02-03T08:33:54;42.20;;;37.80;;
52614;SDS011;38508;53.158;6.614;2023-02-03T08:36:20;51.00;;;38.92;;
52614;SDS011;38508;53.158;6.614;2023-02-03T08:38:46;53.75;;;39.17;;
52614;SDS011;38508;53.158;6.614;2023-02-03T08:41:12;48.78;;;38.50;;
52614;SDS011;38508;53.158;6.614;2023-02-03T08:43:40;56.42;;;37.42;;
52614;SDS011;38508;53.158;6.614;2023-02-03T08:46:06;52.20;;;36.25;;
52614;SDS011;38508;53.158;6.614;2023-02-03T08:48:33;47.03;;;34.53;;
52614;SDS011;38508;53.158;6.614;2023-02-03T08:50:59;43.85;;;32.08;;
52614;SDS011;38508;53.158;6.614;2023-02-03T08:53:25;45.53;;;32.20;;
52614;SDS011;38508;53.158;6.614;2023-02-03T08:55:51;49.58;;;32.38;;
52614;SDS011;38508;53.158;6.614;2023-02-03T08:58:17;49.40;;;29.65;;
52614;SDS011;38508;53.158;6.614;2023-02-03T09:00:43;35.95;;;27.40;;
52614;SDS011;38508;53.158;6.614;2023-02-03T09:03:09;42.17;;;29.60;;
52614;SDS011;38508;53.158;6.614;2023-02-03T09:05:35;37.90;;;28.38;;
52614;SDS011;38508;53.158;6.614;2023-02-03T09:08:01;43.30;;;28.42;;
52614;SDS011;38508;53.158;6.614;2023-02-03T09:10:27;54.00;;;31.65;;
52614;SDS011;38508;53.158;6.614;2023-02-03T09:12:53;44.60;;;30.23;;
52614;SDS011;38508;53.158;6.614;2023-02-03T09:15:19;42.03;;;28.95;;
52614;SDS011;38508;53.158;6.614;2023-02-03T09:17:44;40.08;;;29.75;;
52614;SDS011;38508;53.158;6.614;2023-02-03T09:20:10;45.78;;;27.10;;
52614;SDS011;38508;53.158;6.614;2023-02-03T09:22:39;41.10;;;27.08;;
52614;SDS011;38508;53.158;6.614;2023-02-03T09:25:05;47.85;;;24.92;;
52614;SDS011;38508;53.158;6.614;2023-02-03T09:27:31;43.13;;;25.77;;
52614;SDS011;38508;53.158;6.614;2023-02-03T09:29:57;43.67;;;24.80;;
52614;SDS011;38508;53.158;6.614;2023-02-03T09:32:23;41.53;;;24.65;;
52614;SDS011;38508;53.158;6.614;2023-02-03T09:34:48;46.92;;;25.65;;
52614;SDS011;38508;53.158;6.614;2023-02-03T09:37:14;48.20;;;25.20;;
52614;SDS011;38508;53.158;6.614;2023-02-03T09:39:40;46.45;;;23.27;;
52614;SDS011;38508;53.158;6.614;2023-02-03T09:44:57;40.45;;;21.75;;
52614;SDS011;38508;53.158;6.614;2023-02-03T09:47:40;48.78;;;22.40;;
52614;SDS011;38508;53.158;6.614;2023-02-03T09:50:11;39.78;;;20.80;;
52614;SDS011;38508;53.158;6.614;2023-02-03T09:52:43;53.72;;;20.40;;
52614;SDS011;38508;53.158;6.614;2023-02-03T09:55:23;46.75;;;21.25;;
52614;SDS011;38508;53.158;6.614;2023-02-03T10:01:13;43.13;;;19.00;;
52614;SDS011;38508;53.158;6.614;2023-02-03T10:06:11;47.70;;;19.15;;
52614;SDS011;38508;53.158;6.614;2023-02-03T10:09:13;55.05;;;21.65;;
52614;SDS011;38508;53.158;6.614;2023-02-03T10:17:37;49.17;;;19.67;;
52614;SDS011;38508;53.158;6.614;2023-02-03T10:20:16;62.60;;;20.17;;
52614;SDS011;38508;53.158;6.614;2023-02-03T10:22:51;50.38;;;18.80;;
52614;SDS011;38508;53.158;6.614;2023-02-03T10:28:19;46.97;;;15.88;;
52614;SDS011;38508;53.158;6.614;2023-02-03T10:30:47;43.50;;;16.70;;
52614;SDS011;38508;53.158;6.614;2023-02-03T10:33:20;49.85;;;18.85;;
52614;SDS011;38508;53.158;6.614;2023-02-03T10:35:59;50.42;;;18.55;;
52614;SDS011;38508;53.158;6.614;2023-02-03T10:41:13;52.75;;;19.02;;
52614;SDS011;38508;53.158;6.614;2023-02-03T10:43:41;55.30;;;20.23;;
52614;SDS011;38508;53.158;6.614;2023-02-03T10:46:37;50.90;;;17.70;;
52614;SDS011;38508;53.158;6.614;2023-02-03T10:49:04;54.53;;;15.85;;
52614;SDS011;38508;53.158;6.614;2023-02-03T10:51:37;41.72;;;15.48;;
52614;SDS011;38508;53.158;6.614;2023-02-03T10:56:51;49.38;;;16.02;;
52614;SDS011;38508;53.158;6.614;2023-02-03T10:59:27;57.58;;;18.77;;
52614;SDS011;38508;53.158;6.614;2023-02-03T11:01:54;54.22;;;15.10;;
52614;SDS011;38508;53.158;6.614;2023-02-03T11:04:23;48.30;;;15.23;;
52614;SDS011;38508;53.158;6.614;2023-02-03T11:07:04;49.65;;;13.15;;
52614;SDS011;38508;53.158;6.614;2023-02-03T11:12:07;67.40;;;12.20;;
52614;SDS011;38508;53.158;6.614;2023-02-03T11:14:40;50.33;;;10.32;;
52614;SDS011;38508;53.158;6.614;2023-02-03T11:17:15;48.70;;;9.93;;
52614;SDS011;38508;53.158;6.614;2023-02-03T11:19:45;42.03;;;9.10;;
52614;SDS011;38508;53.158;6.614;2023-02-03T11:22:13;41.22;;;8.95;;
52614;SDS011;38508;53.158;6.614;2023-02-03T11:24:55;43.33;;;8.30;;
52614;SDS011;38508;53.158;6.614;2023-02-03T11:27:21;46.38;;;8.27;;
52614;SDS011;38508;53.158;6.614;2023-02-03T11:29:50;52.67;;;9.43;;
52614;SDS011;38508;53.158;6.614;2023-02-03T11:35:00;47.63;;;8.30;;
52614;SDS011;38508;53.158;6.614;2023-02-03T11:37:32;49.80;;;9.35;;
52614;SDS011;38508;53.158;6.614;2023-02-03T11:42:32;45.28;;;8.93;;
52614;SDS011;38508;53.158;6.614;2023-02-03T11:47:51;52.72;;;8.23;;
52614;SDS011;38508;53.158;6.614;2023-02-03T12:04:34;33.25;;;5.78;;
52614;SDS011;38508;53.158;6.614;2023-02-03T12:09:59;37.92;;;5.80;;
52614;SDS011;38508;53.158;6.614;2023-02-03T12:26:59;36.25;;;6.05;;
52614;SDS011;38508;53.158;6.614;2023-02-03T12:29:42;35.22;;;4.50;;
52614;SDS011;38508;53.158;6.614;2023-02-03T12:34:49;31.83;;;5.63;;
52614;SDS011;38508;53.158;6.614;2023-02-03T12:40:05;32.20;;;4.85;;
52614;SDS011;38508;53.158;6.614;2023-02-03T12:42:52;31.73;;;4.50;;
52614;SDS011;38508;53.158;6.614;2023-02-03T12:45:29;30.45;;;4.45;;
52614;SDS011;38508;53.158;6.614;2023-02-03T12:48:03;35.58;;;4.88;;
52614;SDS011;38508;53.158;6.614;2023-02-03T12:50:41;31.55;;;5.05;;
52614;SDS011;38508;53.158;6.614;2023-02-03T12:53:29;36.13;;;5.55;;
52614;SDS011;38508;53.158;6.614;2023-02-03T12:56:12;33.28;;;5.55;;
52614;SDS011;38508;53.158;6.614;2023-02-03T12:58:55;27.20;;;4.82;;
52614;SDS011;38508;53.158;6.614;2023-02-03T13:01:31;39.20;;;4.88;;
52614;SDS011;38508;53.158;6.614;2023-02-03T13:04:09;32.10;;;5.00;;
52614;SDS011;38508;53.158;6.614;2023-02-03T13:07:13;36.65;;;5.53;;
52614;SDS011;38508;53.158;6.614;2023-02-03T13:12:36;40.10;;;6.00;;
52614;SDS011;38508;53.158;6.614;2023-02-03T13:18:04;49.08;;;6.70;;
52614;SDS011;38508;53.158;6.614;2023-02-03T13:20:35;51.08;;;6.93;;
52614;SDS011;38508;53.158;6.614;2023-02-03T13:23:04;45.85;;;7.20;;
52614;SDS011;38508;53.158;6.614;2023-02-03T13:36:39;44.70;;;6.80;;
52614;SDS011;38508;53.158;6.614;2023-02-03T13:44:45;41.95;;;6.90;;
52614;SDS011;38508;53.158;6.614;2023-02-03T13:47:36;38.47;;;5.82;;
52614;SDS011;38508;53.158;6.614;2023-02-03T13:50:05;40.72;;;6.40;;
52614;SDS011;38508;53.158;6.614;2023-02-03T13:52:44;40.20;;;6.65;;
52614;SDS011;38508;53.158;6.614;2023-02-03T13:55:24;51.85;;;7.05;;
52614;SDS011;38508;53.158;6.614;2023-02-03T13:57:53;42.72;;;6.70;;
52614;SDS011;38508;53.158;6.614;2023-02-03T14:03:16;44.53;;;7.07;;
52614;SDS011;38508;53.158;6.614;2023-02-03T14:06:02;48.80;;;7.60;;
52614;SDS011;38508;53.158;6.614;2023-02-03T14:16:35;40.00;;;6.82;;
52614;SDS011;38508;53.158;6.614;2023-02-03T14:19:02;41.65;;;5.65;;
52614;SDS011;38508;53.158;6.614;2023-02-03T14:21:36;37.72;;;6.03;;
52614;SDS011;38508;53.158;6.614;2023-02-03T14:24:23;32.97;;;5.55;;
52614;SDS011;38508;53.158;6.614;2023-02-03T14:27:04;42.92;;;5.90;;
52614;SDS011;38508;53.158;6.614;2023-02-03T14:29:41;32.63;;;5.72;;
52614;SDS011;38508;53.158;6.614;2023-02-03T14:32:07;34.80;;;5.28;;
52614;SDS011;38508;53.158;6.614;2023-02-03T14:34:44;38.25;;;5.18;;
52614;SDS011;38508;53.158;6.614;2023-02-03T14:48:38;31.73;;;4.43;;
52614;SDS011;38508;53.158;6.614;2023-02-03T14:53:56;31.35;;;5.45;;
52614;SDS011;38508;53.158;6.614;2023-02-03T14:59:42;40.67;;;4.97;;
52614;SDS011;38508;53.158;6.614;2023-02-03T15:02:28;31.25;;;4.75;;
52614;SDS011;38508;53.158;6.614;2023-02-03T15:07:46;28.70;;;4.38;;
52614;SDS011;38508;53.158;6.614;2023-02-03T15:10:17;36.72;;;5.38;;
52614;SDS011;38508;53.158;6.614;2023-02-03T15:12:51;41.45;;;5.63;;
52614;SDS011;38508;53.158;6.614;2023-02-03T15:15:28;40.00;;;5.72;;
52614;SDS011;38508;53.158;6.614;2023-02-03T15:17:57;36.53;;;5.90;;
52614;SDS011;38508;53.158;6.614;2023-02-03T15:23:15;27.70;;;4.45;;
52614;SDS011;38508;53.158;6.614;2023-02-03T15:25:51;38.60;;;5.78;;
52614;SDS011;38508;53.158;6.614;2023-02-03T15:28:19;37.13;;;5.55;;
52614;SDS011;38508;53.158;6.614;2023-02-03T15:30:46;35.28;;;5.30;;
52614;SDS011;38508;53.158;6.614;2023-02-03T15:33:33;38.35;;;5.25;;
52614;SDS011;38508;53.158;6.614;2023-02-03T15:36:03;40.15;;;5.53;;
52614;SDS011;38508;53.158;6.614;2023-02-03T15:38:40;32.17;;;5.22;;
52614;SDS011;38508;53.158;6.614;2023-02-03T15:41:10;36.05;;;5.13;;
52614;SDS011;38508;53.158;6.614;2023-02-03T15:43:47;31.52;;;4.68;;
52614;SDS011;38508;53.158;6.614;2023-02-03T15:46:20;35.13;;;5.43;;
52614;SDS011;38508;53.158;6.614;2023-02-03T15:48:54;36.45;;;4.80;;
52614;SDS011;38508;53.158;6.614;2023-02-03T15:56:59;35.22;;;5.80;;
52614;SDS011;38508;53.158;6.614;2023-02-03T15:59:36;33.97;;;6.38;;
52614;SDS011;38508;53.158;6.614;2023-02-03T16:04:47;36.42;;;7.30;;
52614;SDS011;38508;53.158;6.614;2023-02-03T16:07:18;36.55;;;4.85;;
52614;SDS011;38508;53.158;6.614;2023-02-03T16:09:50;38.60;;;5.32;;
52614;SDS011;38508;53.158;6.614;2023-02-03T16:12:38;36.22;;;6.05;;
52614;SDS011;38508;53.158;6.614;2023-02-03T16:15:05;35.05;;;5.30;;
52614;SDS011;38508;53.158;6.614;2023-02-03T16:17:45;42.60;;;6.28;;
52614;SDS011;38508;53.158;6.614;2023-02-03T16:20:22;42.28;;;6.95;;
52614;SDS011;38508;53.158;6.614;2023-02-03T16:25:30;37.80;;;7.18;;
52614;SDS011;38508;53.158;6.614;2023-02-03T16:30:56;49.15;;;7.53;;
52614;SDS011;38508;53.158;6.614;2023-02-03T16:33:46;43.45;;;7.05;;
52614;SDS011;38508;53.158;6.614;2023-02-03T16:36:38;45.60;;;8.15;;
52614;SDS011;38508;53.158;6.614;2023-02-03T16:39:24;42.17;;;6.18;;
52614;SDS011;38508;53.158;6.614;2023-02-03T16:42:15;50.72;;;6.70;;
52614;SDS011;38508;53.158;6.614;2023-02-03T16:45:09;42.92;;;7.88;;
52614;SDS011;38508;53.158;6.614;2023-02-03T16:47:57;46.42;;;6.40;;
52614;SDS011;38508;53.158;6.614;2023-02-03T16:50:41;53.97;;;10.13;;
52614;SDS011;38508;53.158;6.614;2023-02-03T16:53:24;38.42;;;8.10;;
52614;SDS011;38508;53.158;6.614;2023-02-03T16:55:52;41.70;;;8.93;;
52614;SDS011;38508;53.158;6.614;2023-02-03T16:58:19;38.17;;;6.63;;
52614;SDS011;38508;53.158;6.614;2023-02-03T17:00:46;40.63;;;6.28;;
52614;SDS011;38508;53.158;6.614;2023-02-03T17:03:16;37.22;;;7.07;;
52614;SDS011;38508;53.158;6.614;2023-02-03T17:05:45;52.60;;;7.38;;
52614;SDS011;38508;53.158;6.614;2023-02-03T17:08:11;43.60;;;6.43;;
52614;SDS011;38508;53.158;6.614;2023-02-03T17:10:39;41.65;;;5.95;;
52614;SDS011;38508;53.158;6.614;2023-02-03T17:13:05;55.75;;;8.07;;
52614;SDS011;38508;53.158;6.614;2023-02-03T17:15:38;40.85;;;6.40;;
52614;SDS011;38508;53.158;6.614;2023-02-03T17:18:08;39.58;;;5.70;;
52614;SDS011;38508;53.158;6.614;2023-02-03T17:20:34;39.72;;;7.63;;
52614;SDS011;38508;53.158;6.614;2023-02-03T17:23:00;48.60;;;7.47;;
52614;SDS011;38508;53.158;6.614;2023-02-03T17:25:27;36.17;;;6.90;;
52614;SDS011;38508;53.158;6.614;2023-02-03T17:27:53;44.72;;;6.97;;
52614;SDS011;38508;53.158;6.614;2023-02-03T17:30:18;50.40;;;7.63;;